sensor_id;sensor_type;location;lat;lon;timestamp;P1;durP1;ratioP1;P2;durP2;ratioP2
73136;SDS011;67767;45.636;11.756;2023-04-24T00:00:54;25.90;;;12.75;;
73136;SDS011;67767;45.636;11.756;2023-04-24T00:03:23;22.48;;;11.80;;
73136;SDS011;67767;45.636;11.756;2023-04-24T00:05:49;19.27;;;11.43;;
73136;SDS011;67767;45.636;11.756;2023-04-24T00:08:16;21.23;;;12.37;;
73136;SDS011;67767;45.636;11.756;2023-04-24T00:10:42;21.42;;;11.85;;
73136;SDS011;67767;45.636;11.756;2023-04-24T00:13:08;20.83;;;12.40;;
73136;SDS011;67767;45.636;11.756;2023-04-24T00:15:33;20.83;;;12.43;;
73136;SDS011;67767;45.636;11.756;2023-04-24T00:17:59;21.25;;;11.73;;
73136;SDS011;67767;45.636;11.756;2023-04-24T00:20:26;19.98;;;12.20;;
73136;SDS011;67767;45.636;11.756;2023-04-24T00:22:54;20.80;;;11.82;;
73136;SDS011;67767;45.636;11.756;2023-04-24T00:25:20;22.13;;;11.93;;
73136;SDS011;67767;45.636;11.756;2023-04-24T00:27:46;22.33;;;11.82;;
73136;SDS011;67767;45.636;11.756;2023-04-24T00:30:11;19.47;;;11.90;;
73136;SDS011;67767;45.636;11.756;2023-04-24T00:32:37;17.38;;;11.10;;
73136;SDS011;67767;45.636;11.756;2023-04-24T00:35:03;20.52;;;11.50;;
73136;SDS011;67767;45.636;11.756;2023-04-24T00:37:30;19.23;;;11.23;;
73136;SDS011;67767;45.636;11.756;2023-04-24T00:39:56;20.90;;;11.52;;
73136;SDS011;67767;45.636;11.756;2023-04-24T00:42:22;20.40;;;11.95;;
73136;SDS011;67767;45.636;11.756;2023-04-24T00:44:48;20.40;;;11.33;;
73136;SDS011;67767;45.636;11.756;2023-04-24T00:47:14;18.85;;;10.98;;
73136;SDS011;67767;45.636;11.756;2023-04-24T00:49:40;19.05;;;11.60;;
73136;SDS011;67767;45.636;11.756;2023-04-24T00:52:06;22.73;;;11.87;;
73136;SDS011;67767;45.636;11.756;2023-04-24T00:54:34;21.33;;;12.48;;
73136;SDS011;67767;45.636;11.756;2023-04-24T00:57:00;21.70;;;11.88;;
73136;SDS011;67767;45.636;11.756;2023-04-24T00:59:27;19.20;;;11.75;;
73136;SDS011;67767;45.636;11.756;2023-04-24T01:01:53;19.63;;;12.48;;
73136;SDS011;67767;45.636;11.756;2023-04-24T01:04:20;21.63;;;12.03;;
73136;SDS011;67767;45.636;11.756;2023-04-24T01:06:46;20.20;;;11.73;;
73136;SDS011;67767;45.636;11.756;2023-04-24T01:09:15;19.67;;;12.02;;
73136;SDS011;67767;45.636;11.756;2023-04-24T01:11:42;17.80;;;11.68;;
73136;SDS011;67767;45.636;11.756;2023-04-24T01:14:08;18.90;;;12.17;;
73136;SDS011;67767;45.636;11.756;2023-04-24T01:16:35;19.27;;;11.48;;
73136;SDS011;67767;45.636;11.756;2023-04-24T01:19:03;20.15;;;11.45;;
73136;SDS011;67767;45.636;11.756;2023-04-24T01:21:30;19.27;;;11.07;;
73136;SDS011;67767;45.636;11.756;2023-04-24T01:24:01;18.63;;;11.07;;
73136;SDS011;67767;45.636;11.756;2023-04-24T01:26:27;17.33;;;11.20;;
73136;SDS011;67767;45.636;11.756;2023-04-24T01:28:53;19.33;;;11.43;;
73136;SDS011;67767;45.636;11.756;2023-04-24T01:31:19;17.25;;;10.68;;
73136;SDS011;67767;45.636;11.756;2023-04-24T01:33:45;19.10;;;10.67;;
73136;SDS011;67767;45.636;11.756;2023-04-24T01:36:11;19.33;;;10.45;;
73136;SDS011;67767;45.636;11.756;2023-04-24T01:38:38;20.05;;;10.30;;
73136;SDS011;67767;45.636;11.756;2023-04-24T01:41:04;18.70;;;10.55;;
73136;SDS011;67767;45.636;11.756;2023-04-24T01:43:31;16.60;;;10.00;;
73136;SDS011;67767;45.636;11.756;2023-04-24T01:45:57;19.52;;;9.43;;
73136;SDS011;67767;45.636;11.756;2023-04-24T01:48:22;17.10;;;9.60;;
73136;SDS011;67767;45.636;11.756;2023-04-24T01:50:48;19.13;;;9.45;;
73136;SDS011;67767;45.636;11.756;2023-04-24T01:53:14;16.77;;;9.43;;
73136;SDS011;67767;45.636;11.756;2023-04-24T01:55:40;15.38;;;8.95;;
73136;SDS011;67767;45.636;11.756;2023-04-24T01:58:06;13.18;;;8.27;;
73136;SDS011;67767;45.636;11.756;2023-04-24T02:00:32;15.63;;;8.87;;
73136;SDS011;67767;45.636;11.756;2023-04-24T02:02:57;14.90;;;8.88;;
73136;SDS011;67767;45.636;11.756;2023-04-24T02:05:23;15.88;;;8.43;;
73136;SDS011;67767;45.636;11.756;2023-04-24T02:07:49;15.57;;;9.10;;
73136;SDS011;67767;45.636;11.756;2023-04-24T02:10:14;14.90;;;8.50;;
73136;SDS011;67767;45.636;11.756;2023-04-24T02:12:40;14.63;;;8.80;;
73136;SDS011;67767;45.636;11.756;2023-04-24T02:15:06;13.07;;;8.82;;
73136;SDS011;67767;45.636;11.756;2023-04-24T02:17:32;14.10;;;7.90;;
73136;SDS011;67767;45.636;11.756;2023-04-24T02:19:57;14.88;;;7.80;;
73136;SDS011;67767;45.636;11.756;2023-04-24T02:22:23;12.53;;;7.93;;
73136;SDS011;67767;45.636;11.756;2023-04-24T02:24:49;14.32;;;7.80;;
73136;SDS011;67767;45.636;11.756;2023-04-24T02:27:15;11.83;;;7.50;;
73136;SDS011;67767;45.636;11.756;2023-04-24T02:29:40;13.75;;;8.32;;
73136;SDS011;67767;45.636;11.756;2023-04-24T02:32:06;11.47;;;7.63;;
73136;SDS011;67767;45.636;11.756;2023-04-24T02:34:31;15.57;;;7.72;;
73136;SDS011;67767;45.636;11.756;2023-04-24T02:36:57;14.10;;;7.63;;
73136;SDS011;67767;45.636;11.756;2023-04-24T02:39:23;13.60;;;7.80;;
73136;SDS011;67767;45.636;11.756;2023-04-24T02:41:48;12.47;;;8.10;;
73136;SDS011;67767;45.636;11.756;2023-04-24T02:44:14;15.03;;;7.97;;
73136;SDS011;67767;45.636;11.756;2023-04-24T02:46:40;14.37;;;8.17;;
73136;SDS011;67767;45.636;11.756;2023-04-24T02:49:06;12.77;;;7.25;;
73136;SDS011;67767;45.636;11.756;2023-04-24T02:51:32;15.20;;;7.45;;
73136;SDS011;67767;45.636;11.756;2023-04-24T02:53:58;10.73;;;6.97;;
73136;SDS011;67767;45.636;11.756;2023-04-24T02:56:24;13.57;;;7.43;;
73136;SDS011;67767;45.636;11.756;2023-04-24T02:58:50;13.73;;;7.18;;
73136;SDS011;67767;45.636;11.756;2023-04-24T03:01:15;10.05;;;6.35;;
73136;SDS011;67767;45.636;11.756;2023-04-24T03:03:41;14.33;;;7.30;;
73136;SDS011;67767;45.636;11.756;2023-04-24T03:06:07;12.50;;;7.15;;
73136;SDS011;67767;45.636;11.756;2023-04-24T03:08:33;14.10;;;8.03;;
73136;SDS011;67767;45.636;11.756;2023-04-24T03:10:59;15.07;;;7.75;;
73136;SDS011;67767;45.636;11.756;2023-04-24T03:13:25;14.93;;;7.03;;
73136;SDS011;67767;45.636;11.756;2023-04-24T03:15:51;15.27;;;7.60;;
73136;SDS011;67767;45.636;11.756;2023-04-24T03:18:16;11.82;;;6.80;;
73136;SDS011;67767;45.636;11.756;2023-04-24T03:20:42;17.33;;;8.17;;
73136;SDS011;67767;45.636;11.756;2023-04-24T03:23:10;13.93;;;7.57;;
73136;SDS011;67767;45.636;11.756;2023-04-24T03:25:35;13.15;;;6.78;;
73136;SDS011;67767;45.636;11.756;2023-04-24T03:28:01;13.30;;;6.73;;
73136;SDS011;67767;45.636;11.756;2023-04-24T03:30:27;11.38;;;6.82;;
73136;SDS011;67767;45.636;11.756;2023-04-24T03:32:52;13.47;;;8.67;;
73136;SDS011;67767;45.636;11.756;2023-04-24T03:35:18;11.95;;;6.85;;
73136;SDS011;67767;45.636;11.756;2023-04-24T03:37:44;10.73;;;7.20;;
73136;SDS011;67767;45.636;11.756;2023-04-24T03:40:10;17.25;;;7.63;;
73136;SDS011;67767;45.636;11.756;2023-04-24T03:42:36;15.25;;;7.10;;
73136;SDS011;67767;45.636;11.756;2023-04-24T03:45:02;11.50;;;6.20;;
73136;SDS011;67767;45.636;11.756;2023-04-24T03:47:28;11.05;;;7.05;;
73136;SDS011;67767;45.636;11.756;2023-04-24T03:49:53;11.83;;;6.97;;
73136;SDS011;67767;45.636;11.756;2023-04-24T03:52:20;18.05;;;6.50;;
73136;SDS011;67767;45.636;11.756;2023-04-24T03:54:46;11.57;;;6.80;;
73136;SDS011;67767;45.636;11.756;2023-04-24T03:57:12;14.10;;;7.17;;
73136;SDS011;67767;45.636;11.756;2023-04-24T03:59:37;14.25;;;7.40;;
73136;SDS011;67767;45.636;11.756;2023-04-24T04:02:03;12.70;;;7.37;;
73136;SDS011;67767;45.636;11.756;2023-04-24T04:04:29;10.50;;;6.40;;
73136;SDS011;67767;45.636;11.756;2023-04-24T04:06:54;12.80;;;7.03;;
73136;SDS011;67767;45.636;11.756;2023-04-24T04:09:20;12.68;;;7.50;;
73136;SDS011;67767;45.636;11.756;2023-04-24T04:11:46;12.97;;;7.07;;
73136;SDS011;67767;45.636;11.756;2023-04-24T04:14:11;15.32;;;7.38;;
73136;SDS011;67767;45.636;11.756;2023-04-24T04:16:37;14.83;;;8.27;;
73136;SDS011;67767;45.636;11.756;2023-04-24T04:19:03;14.27;;;8.25;;
73136;SDS011;67767;45.636;11.756;2023-04-24T04:21:28;13.97;;;8.20;;
73136;SDS011;67767;45.636;11.756;2023-04-24T04:23:55;13.50;;;8.10;;
73136;SDS011;67767;45.636;11.756;2023-04-24T04:26:21;13.00;;;7.82;;
73136;SDS011;67767;45.636;11.756;2023-04-24T04:28:50;13.60;;;7.72;;
73136;SDS011;67767;45.636;11.756;2023-04-24T04:31:17;15.40;;;8.57;;
73136;SDS011;67767;45.636;11.756;2023-04-24T04:33:44;15.85;;;8.20;;
73136;SDS011;67767;45.636;11.756;2023-04-24T04:36:10;13.63;;;7.72;;
73136;SDS011;67767;45.636;11.756;2023-04-24T04:38:37;14.67;;;8.50;;
73136;SDS011;67767;45.636;11.756;2023-04-24T04:41:04;15.07;;;8.68;;
73136;SDS011;67767;45.636;11.756;2023-04-24T04:43:30;16.77;;;9.10;;
73136;SDS011;67767;45.636;11.756;2023-04-24T04:45:57;19.92;;;8.63;;
73136;SDS011;67767;45.636;11.756;2023-04-24T04:48:23;16.77;;;8.93;;
73136;SDS011;67767;45.636;11.756;2023-04-24T04:50:49;15.82;;;8.93;;
73136;SDS011;67767;45.636;11.756;2023-04-24T04:53:15;14.88;;;9.50;;
73136;SDS011;67767;45.636;11.756;2023-04-24T04:55:40;14.87;;;8.67;;
73136;SDS011;67767;45.636;11.756;2023-04-24T04:58:06;17.92;;;9.65;;
73136;SDS011;67767;45.636;11.756;2023-04-24T05:00:32;16.43;;;9.83;;
73136;SDS011;67767;45.636;11.756;2023-04-24T05:03:01;18.88;;;9.77;;
73136;SDS011;67767;45.636;11.756;2023-04-24T05:05:27;15.30;;;9.50;;
73136;SDS011;67767;45.636;11.756;2023-04-24T05:07:53;19.17;;;10.77;;
73136;SDS011;67767;45.636;11.756;2023-04-24T05:10:19;18.77;;;10.83;;
73136;SDS011;67767;45.636;11.756;2023-04-24T05:12:44;18.45;;;10.77;;
73136;SDS011;67767;45.636;11.756;2023-04-24T05:15:10;17.73;;;10.17;;
73136;SDS011;67767;45.636;11.756;2023-04-24T05:17:36;17.27;;;10.60;;
73136;SDS011;67767;45.636;11.756;2023-04-24T05:20:02;21.13;;;10.97;;
73136;SDS011;67767;45.636;11.756;2023-04-24T05:22:30;17.70;;;9.93;;
73136;SDS011;67767;45.636;11.756;2023-04-24T05:24:56;18.90;;;10.35;;
73136;SDS011;67767;45.636;11.756;2023-04-24T05:27:22;17.58;;;9.65;;
73136;SDS011;67767;45.636;11.756;2023-04-24T05:29:48;20.27;;;10.73;;
73136;SDS011;67767;45.636;11.756;2023-04-24T05:32:14;17.02;;;9.98;;
73136;SDS011;67767;45.636;11.756;2023-04-24T05:34:39;17.63;;;10.07;;
73136;SDS011;67767;45.636;11.756;2023-04-24T05:37:05;20.92;;;10.73;;
73136;SDS011;67767;45.636;11.756;2023-04-24T05:39:33;17.17;;;9.88;;
73136;SDS011;67767;45.636;11.756;2023-04-24T05:42:00;16.20;;;9.85;;
73136;SDS011;67767;45.636;11.756;2023-04-24T05:44:26;18.93;;;10.63;;
73136;SDS011;67767;45.636;11.756;2023-04-24T05:46:52;18.17;;;10.60;;
73136;SDS011;67767;45.636;11.756;2023-04-24T05:49:18;21.65;;;11.18;;
73136;SDS011;67767;45.636;11.756;2023-04-24T05:51:43;17.47;;;10.63;;
73136;SDS011;67767;45.636;11.756;2023-04-24T05:54:09;20.40;;;10.25;;
73136;SDS011;67767;45.636;11.756;2023-04-24T05:56:37;17.30;;;10.40;;
73136;SDS011;67767;45.636;11.756;2023-04-24T05:59:03;18.25;;;11.15;;
73136;SDS011;67767;45.636;11.756;2023-04-24T06:01:29;20.30;;;11.33;;
73136;SDS011;67767;45.636;11.756;2023-04-24T06:03:56;18.08;;;11.07;;
73136;SDS011;67767;45.636;11.756;2023-04-24T06:06:23;20.13;;;11.80;;
73136;SDS011;67767;45.636;11.756;2023-04-24T06:08:49;19.63;;;11.87;;
73136;SDS011;67767;45.636;11.756;2023-04-24T06:11:15;20.50;;;11.52;;
73136;SDS011;67767;45.636;11.756;2023-04-24T06:13:41;18.50;;;11.88;;
73136;SDS011;67767;45.636;11.756;2023-04-24T06:16:06;23.73;;;11.77;;
73136;SDS011;67767;45.636;11.756;2023-04-24T06:18:32;19.60;;;11.93;;
73136;SDS011;67767;45.636;11.756;2023-04-24T06:20:58;21.58;;;12.48;;
73136;SDS011;67767;45.636;11.756;2023-04-24T06:23:24;26.50;;;13.47;;
73136;SDS011;67767;45.636;11.756;2023-04-24T06:25:50;19.88;;;11.20;;
73136;SDS011;67767;45.636;11.756;2023-04-24T06:28:16;18.45;;;10.85;;
73136;SDS011;67767;45.636;11.756;2023-04-24T06:30:42;17.93;;;10.20;;
73136;SDS011;67767;45.636;11.756;2023-04-24T06:33:08;18.20;;;10.70;;
73136;SDS011;67767;45.636;11.756;2023-04-24T06:35:34;19.25;;;10.88;;
73136;SDS011;67767;45.636;11.756;2023-04-24T06:38:00;20.05;;;11.50;;
73136;SDS011;67767;45.636;11.756;2023-04-24T06:40:26;20.67;;;11.37;;
73136;SDS011;67767;45.636;11.756;2023-04-24T06:42:51;18.67;;;10.27;;
73136;SDS011;67767;45.636;11.756;2023-04-24T06:45:17;19.07;;;11.20;;
73136;SDS011;67767;45.636;11.756;2023-04-24T06:48:01;19.58;;;10.57;;
73136;SDS011;67767;45.636;11.756;2023-04-24T06:50:27;18.98;;;11.35;;
73136;SDS011;67767;45.636;11.756;2023-04-24T06:52:53;21.70;;;12.00;;
73136;SDS011;67767;45.636;11.756;2023-04-24T06:55:18;19.80;;;10.23;;
73136;SDS011;67767;45.636;11.756;2023-04-24T06:57:44;16.45;;;9.20;;
73136;SDS011;67767;45.636;11.756;2023-04-24T07:00:10;13.97;;;8.10;;
73136;SDS011;67767;45.636;11.756;2023-04-24T07:02:36;12.63;;;6.45;;
73136;SDS011;67767;45.636;11.756;2023-04-24T07:05:02;11.18;;;6.18;;
73136;SDS011;67767;45.636;11.756;2023-04-24T07:07:29;9.73;;;5.30;;
73136;SDS011;67767;45.636;11.756;2023-04-24T07:09:54;11.57;;;6.53;;
73136;SDS011;67767;45.636;11.756;2023-04-24T07:12:21;12.38;;;7.43;;
73136;SDS011;67767;45.636;11.756;2023-04-24T07:14:47;14.50;;;7.72;;
73136;SDS011;67767;45.636;11.756;2023-04-24T07:17:13;15.00;;;8.40;;
73136;SDS011;67767;45.636;11.756;2023-04-24T07:19:38;15.10;;;8.25;;
73136;SDS011;67767;45.636;11.756;2023-04-24T07:22:04;13.80;;;7.53;;
73136;SDS011;67767;45.636;11.756;2023-04-24T07:24:30;12.75;;;6.53;;
73136;SDS011;67767;45.636;11.756;2023-04-24T07:26:57;13.73;;;6.88;;
73136;SDS011;67767;45.636;11.756;2023-04-24T07:29:23;11.57;;;6.30;;
73136;SDS011;67767;45.636;11.756;2023-04-24T07:31:49;8.40;;;4.30;;
73136;SDS011;67767;45.636;11.756;2023-04-24T07:34:14;7.07;;;3.03;;
73136;SDS011;67767;45.636;11.756;2023-04-24T07:36:40;6.30;;;3.20;;
73136;SDS011;67767;45.636;11.756;2023-04-24T07:39:06;6.47;;;3.20;;
73136;SDS011;67767;45.636;11.756;2023-04-24T07:41:33;7.13;;;2.55;;
73136;SDS011;67767;45.636;11.756;2023-04-24T07:43:59;5.82;;;2.10;;
73136;SDS011;67767;45.636;11.756;2023-04-24T07:46:24;4.77;;;1.73;;
73136;SDS011;67767;45.636;11.756;2023-04-24T07:48:50;3.65;;;1.70;;
73136;SDS011;67767;45.636;11.756;2023-04-24T07:51:16;6.35;;;2.53;;
73136;SDS011;67767;45.636;11.756;2023-04-24T07:53:42;5.20;;;2.30;;
73136;SDS011;67767;45.636;11.756;2023-04-24T07:56:08;5.83;;;1.93;;
73136;SDS011;67767;45.636;11.756;2023-04-24T07:58:34;5.22;;;1.83;;
73136;SDS011;67767;45.636;11.756;2023-04-24T08:01:00;5.78;;;2.05;;
73136;SDS011;67767;45.636;11.756;2023-04-24T08:03:26;4.38;;;1.90;;
73136;SDS011;67767;45.636;11.756;2023-04-24T08:05:52;5.20;;;2.40;;
73136;SDS011;67767;45.636;11.756;2023-04-24T08:08:18;5.13;;;2.30;;
73136;SDS011;67767;45.636;11.756;2023-04-24T08:10:48;5.10;;;2.20;;
73136;SDS011;67767;45.636;11.756;2023-04-24T08:13:14;7.05;;;2.00;;
73136;SDS011;67767;45.636;11.756;2023-04-24T08:15:39;5.00;;;2.40;;
73136;SDS011;67767;45.636;11.756;2023-04-24T08:18:05;5.13;;;1.80;;
73136;SDS011;67767;45.636;11.756;2023-04-24T08:20:31;4.73;;;2.30;;
73136;SDS011;67767;45.636;11.756;2023-04-24T08:22:56;5.53;;;2.15;;
73136;SDS011;67767;45.636;11.756;2023-04-24T08:25:22;5.20;;;2.00;;
73136;SDS011;67767;45.636;11.756;2023-04-24T08:27:49;5.15;;;2.30;;
73136;SDS011;67767;45.636;11.756;2023-04-24T08:30:15;3.65;;;1.67;;
73136;SDS011;67767;45.636;11.756;2023-04-24T08:32:41;2.90;;;1.10;;
73136;SDS011;67767;45.636;11.756;2023-04-24T08:35:07;4.70;;;1.67;;
73136;SDS011;67767;45.636;11.756;2023-04-24T08:37:34;4.53;;;1.95;;
73136;SDS011;67767;45.636;11.756;2023-04-24T08:40:01;3.38;;;1.15;;
73136;SDS011;67767;45.636;11.756;2023-04-24T08:42:30;3.00;;;1.27;;
73136;SDS011;67767;45.636;11.756;2023-04-24T08:44:58;3.05;;;1.40;;
73136;SDS011;67767;45.636;11.756;2023-04-24T08:47:23;5.07;;;1.73;;
73136;SDS011;67767;45.636;11.756;2023-04-24T08:49:51;4.77;;;2.03;;
73136;SDS011;67767;45.636;11.756;2023-04-24T08:52:18;5.25;;;2.45;;
73136;SDS011;67767;45.636;11.756;2023-04-24T08:54:45;6.40;;;2.95;;
73136;SDS011;67767;45.636;11.756;2023-04-24T08:57:13;8.70;;;4.05;;
73136;SDS011;67767;45.636;11.756;2023-04-24T08:59:40;6.13;;;3.08;;
73136;SDS011;67767;45.636;11.756;2023-04-24T09:02:08;5.97;;;3.00;;
73136;SDS011;67767;45.636;11.756;2023-04-24T09:04:35;4.20;;;2.05;;
73136;SDS011;67767;45.636;11.756;2023-04-24T09:07:02;5.55;;;2.40;;
73136;SDS011;67767;45.636;11.756;2023-04-24T09:09:30;4.55;;;2.42;;
73136;SDS011;67767;45.636;11.756;2023-04-24T09:11:57;5.55;;;2.60;;
73136;SDS011;67767;45.636;11.756;2023-04-24T09:14:24;6.90;;;2.80;;
73136;SDS011;67767;45.636;11.756;2023-04-24T09:16:50;6.32;;;2.90;;
73136;SDS011;67767;45.636;11.756;2023-04-24T09:19:16;6.10;;;2.90;;
73136;SDS011;67767;45.636;11.756;2023-04-24T09:21:42;5.30;;;2.53;;
73136;SDS011;67767;45.636;11.756;2023-04-24T09:24:21;6.33;;;3.20;;
73136;SDS011;67767;45.636;11.756;2023-04-24T09:26:56;5.05;;;2.80;;
73136;SDS011;67767;45.636;11.756;2023-04-24T09:29:23;10.88;;;4.28;;
73136;SDS011;67767;45.636;11.756;2023-04-24T09:31:50;6.47;;;2.95;;
73136;SDS011;67767;45.636;11.756;2023-04-24T09:34:18;5.00;;;2.47;;
73136;SDS011;67767;45.636;11.756;2023-04-24T09:36:50;4.60;;;2.00;;
73136;SDS011;67767;45.636;11.756;2023-04-24T09:39:16;3.58;;;1.60;;
73136;SDS011;67767;45.636;11.756;2023-04-24T09:44:12;2.08;;;1.10;;
73136;SDS011;67767;45.636;11.756;2023-04-24T09:46:42;3.33;;;1.50;;
73136;SDS011;67767;45.636;11.756;2023-04-24T09:49:13;3.38;;;1.20;;
73136;SDS011;67767;45.636;11.756;2023-04-24T09:51:41;3.28;;;1.20;;
73136;SDS011;67767;45.636;11.756;2023-04-24T09:56:44;3.30;;;1.40;;
73136;SDS011;67767;45.636;11.756;2023-04-24T09:59:10;4.87;;;1.67;;
73136;SDS011;67767;45.636;11.756;2023-04-24T10:01:37;4.03;;;1.50;;
73136;SDS011;67767;45.636;11.756;2023-04-24T10:04:05;2.20;;;0.90;;
73136;SDS011;67767;45.636;11.756;2023-04-24T10:06:34;2.07;;;0.80;;
73136;SDS011;67767;45.636;11.756;2023-04-24T10:09:01;3.15;;;1.10;;
73136;SDS011;67767;45.636;11.756;2023-04-24T10:11:28;2.60;;;1.00;;
73136;SDS011;67767;45.636;11.756;2023-04-24T10:13:55;2.40;;;1.10;;
73136;SDS011;67767;45.636;11.756;2023-04-24T10:16:22;2.67;;;1.35;;
73136;SDS011;67767;45.636;11.756;2023-04-24T10:18:52;3.27;;;1.10;;
73136;SDS011;67767;45.636;11.756;2023-04-24T10:21:18;2.65;;;1.00;;
73136;SDS011;67767;45.636;11.756;2023-04-24T10:23:43;2.25;;;0.80;;
73136;SDS011;67767;45.636;11.756;2023-04-24T10:26:14;2.20;;;0.68;;
73136;SDS011;67767;45.636;11.756;2023-04-24T10:28:46;3.40;;;0.90;;
73136;SDS011;67767;45.636;11.756;2023-04-24T10:31:15;3.08;;;0.90;;
73136;SDS011;67767;45.636;11.756;2023-04-24T10:33:43;2.00;;;0.82;;
73136;SDS011;67767;45.636;11.756;2023-04-24T10:36:10;2.95;;;1.10;;
73136;SDS011;67767;45.636;11.756;2023-04-24T10:38:39;2.45;;;0.88;;
73136;SDS011;67767;45.636;11.756;2023-04-24T10:41:07;4.03;;;2.13;;
73136;SDS011;67767;45.636;11.756;2023-04-24T10:43:34;2.70;;;1.10;;
73136;SDS011;67767;45.636;11.756;2023-04-24T10:46:01;4.28;;;1.10;;
73136;SDS011;67767;45.636;11.756;2023-04-24T10:48:28;2.33;;;0.90;;
73136;SDS011;67767;45.636;11.756;2023-04-24T10:50:54;7.68;;;1.80;;
73136;SDS011;67767;45.636;11.756;2023-04-24T10:53:24;2.50;;;0.97;;
73136;SDS011;67767;45.636;11.756;2023-04-24T10:58:24;3.30;;;1.10;;
73136;SDS011;67767;45.636;11.756;2023-04-24T11:01:00;2.58;;;1.05;;
73136;SDS011;67767;45.636;11.756;2023-04-24T11:08:45;2.13;;;1.10;;
73136;SDS011;67767;45.636;11.756;2023-04-24T11:11:11;2.40;;;1.00;;
73136;SDS011;67767;45.636;11.756;2023-04-24T11:19:08;3.85;;;1.40;;
73136;SDS011;67767;45.636;11.756;2023-04-24T11:21:42;2.75;;;1.10;;
73136;SDS011;67767;45.636;11.756;2023-04-24T11:24:28;3.10;;;1.00;;
73136;SDS011;67767;45.636;11.756;2023-04-24T11:35:05;2.85;;;1.17;;
73136;SDS011;67767;45.636;11.756;2023-04-24T11:40:07;2.92;;;1.10;;
73136;SDS011;67767;45.636;11.756;2023-04-24T11:42:36;6.43;;;1.13;;
73136;SDS011;67767;45.636;11.756;2023-04-24T11:45:07;3.53;;;1.17;;
73136;SDS011;67767;45.636;11.756;2023-04-24T11:47:43;2.10;;;0.98;;
73136;SDS011;67767;45.636;11.756;2023-04-24T11:50:20;2.42;;;0.90;;
73136;SDS011;67767;45.636;11.756;2023-04-24T11:52:48;1.83;;;0.77;;
73136;SDS011;67767;45.636;11.756;2023-04-24T11:57:47;3.65;;;0.90;;
73136;SDS011;67767;45.636;11.756;2023-04-24T12:00:18;2.03;;;0.90;;
73136;SDS011;67767;45.636;11.756;2023-04-24T12:02:48;3.13;;;1.27;;
73136;SDS011;67767;45.636;11.756;2023-04-24T12:05:24;2.07;;;0.83;;
73136;SDS011;67767;45.636;11.756;2023-04-24T12:07:52;1.73;;;0.70;;
73136;SDS011;67767;45.636;11.756;2023-04-24T12:10:21;1.88;;;0.80;;
73136;SDS011;67767;45.636;11.756;2023-04-24T12:12:49;2.63;;;0.80;;
73136;SDS011;67767;45.636;11.756;2023-04-24T12:15:16;4.78;;;1.00;;
73136;SDS011;67767;45.636;11.756;2023-04-24T12:17:43;2.80;;;0.90;;
73136;SDS011;67767;45.636;11.756;2023-04-24T12:20:10;3.65;;;1.10;;
73136;SDS011;67767;45.636;11.756;2023-04-24T12:22:50;3.15;;;1.35;;
73136;SDS011;67767;45.636;11.756;2023-04-24T12:25:19;2.10;;;0.85;;
73136;SDS011;67767;45.636;11.756;2023-04-24T12:27:51;1.70;;;0.80;;
73136;SDS011;67767;45.636;11.756;2023-04-24T12:30:45;2.40;;;1.00;;
73136;SDS011;67767;45.636;11.756;2023-04-24T12:33:17;2.85;;;0.98;;
73136;SDS011;67767;45.636;11.756;2023-04-24T12:35:44;2.30;;;0.90;;
73136;SDS011;67767;45.636;11.756;2023-04-24T12:38:13;2.20;;;1.00;;
73136;SDS011;67767;45.636;11.756;2023-04-24T12:40:41;2.47;;;1.00;;
73136;SDS011;67767;45.636;11.756;2023-04-24T12:43:17;2.63;;;1.00;;
73136;SDS011;67767;45.636;11.756;2023-04-24T12:45:44;3.35;;;1.10;;
73136;SDS011;67767;45.636;11.756;2023-04-24T12:48:10;3.83;;;1.17;;
73136;SDS011;67767;45.636;11.756;2023-04-24T12:50:37;3.05;;;1.30;;
73136;SDS011;67767;45.636;11.756;2023-04-24T12:53:03;2.47;;;1.20;;
73136;SDS011;67767;45.636;11.756;2023-04-24T12:55:29;2.60;;;1.17;;
73136;SDS011;67767;45.636;11.756;2023-04-24T12:57:54;2.20;;;1.00;;
73136;SDS011;67767;45.636;11.756;2023-04-24T13:00:21;2.47;;;1.10;;
73136;SDS011;67767;45.636;11.756;2023-04-24T13:02:46;2.08;;;1.00;;
73136;SDS011;67767;45.636;11.756;2023-04-24T13:05:12;2.97;;;1.20;;
73136;SDS011;67767;45.636;11.756;2023-04-24T13:07:38;2.57;;;1.20;;
73136;SDS011;67767;45.636;11.756;2023-04-24T13:10:05;2.35;;;1.20;;
73136;SDS011;67767;45.636;11.756;2023-04-24T13:12:31;2.65;;;1.40;;
73136;SDS011;67767;45.636;11.756;2023-04-24T13:14:57;3.30;;;1.67;;
73136;SDS011;67767;45.636;11.756;2023-04-24T13:17:23;2.75;;;1.40;;
73136;SDS011;67767;45.636;11.756;2023-04-24T13:19:50;4.73;;;1.50;;
73136;SDS011;67767;45.636;11.756;2023-04-24T13:22:16;3.00;;;1.48;;
73136;SDS011;67767;45.636;11.756;2023-04-24T13:24:44;3.58;;;1.67;;
73136;SDS011;67767;45.636;11.756;2023-04-24T13:27:09;2.67;;;1.50;;
73136;SDS011;67767;45.636;11.756;2023-04-24T13:29:36;4.03;;;1.40;;
73136;SDS011;67767;45.636;11.756;2023-04-24T13:32:02;3.10;;;1.40;;
73136;SDS011;67767;45.636;11.756;2023-04-24T13:34:28;3.70;;;1.40;;
73136;SDS011;67767;45.636;11.756;2023-04-24T13:36:55;4.43;;;1.70;;
73136;SDS011;67767;45.636;11.756;2023-04-24T13:39:22;4.35;;;1.65;;
73136;SDS011;67767;45.636;11.756;2023-04-24T13:41:48;3.85;;;1.90;;
73136;SDS011;67767;45.636;11.756;2023-04-24T13:44:14;4.43;;;1.70;;
73136;SDS011;67767;45.636;11.756;2023-04-24T13:46:40;5.45;;;1.65;;
73136;SDS011;67767;45.636;11.756;2023-04-24T13:49:07;4.40;;;1.80;;
73136;SDS011;67767;45.636;11.756;2023-04-24T13:51:33;3.95;;;2.30;;
73136;SDS011;67767;45.636;11.756;2023-04-24T13:53:58;3.28;;;1.60;;
73136;SDS011;67767;45.636;11.756;2023-04-24T13:56:24;4.13;;;1.13;;
73136;SDS011;67767;45.636;11.756;2023-04-24T13:58:51;4.15;;;1.70;;
73136;SDS011;67767;45.636;11.756;2023-04-24T14:01:19;3.88;;;1.20;;
73136;SDS011;67767;45.636;11.756;2023-04-24T14:03:45;2.85;;;1.38;;
73136;SDS011;67767;45.636;11.756;2023-04-24T14:06:11;3.50;;;1.47;;
73136;SDS011;67767;45.636;11.756;2023-04-24T14:08:37;3.15;;;1.50;;
73136;SDS011;67767;45.636;11.756;2023-04-24T14:11:02;4.30;;;1.40;;
73136;SDS011;67767;45.636;11.756;2023-04-24T14:13:28;2.63;;;1.38;;
73136;SDS011;67767;45.636;11.756;2023-04-24T14:15:54;3.10;;;1.50;;
73136;SDS011;67767;45.636;11.756;2023-04-24T14:18:20;3.58;;;1.48;;
73136;SDS011;67767;45.636;11.756;2023-04-24T14:20:45;3.27;;;1.50;;
73136;SDS011;67767;45.636;11.756;2023-04-24T14:23:11;4.50;;;1.65;;
73136;SDS011;67767;45.636;11.756;2023-04-24T14:25:37;4.97;;;2.30;;
73136;SDS011;67767;45.636;11.756;2023-04-24T14:28:02;3.08;;;1.52;;
73136;SDS011;67767;45.636;11.756;2023-04-24T14:30:28;4.70;;;1.90;;
73136;SDS011;67767;45.636;11.756;2023-04-24T14:32:54;2.97;;;1.20;;
73136;SDS011;67767;45.636;11.756;2023-04-24T14:35:19;3.13;;;1.33;;
73136;SDS011;67767;45.636;11.756;2023-04-24T14:37:46;2.80;;;1.30;;
73136;SDS011;67767;45.636;11.756;2023-04-24T14:40:13;2.53;;;1.40;;
73136;SDS011;67767;45.636;11.756;2023-04-24T14:42:38;3.30;;;1.50;;
73136;SDS011;67767;45.636;11.756;2023-04-24T14:45:05;3.67;;;1.58;;
73136;SDS011;67767;45.636;11.756;2023-04-24T14:47:32;3.63;;;1.60;;
73136;SDS011;67767;45.636;11.756;2023-04-24T14:49:58;4.03;;;1.30;;
73136;SDS011;67767;45.636;11.756;2023-04-24T14:52:24;3.50;;;1.40;;